sensor_id;sensor_type;location;lat;lon;timestamp;pressure;altitude;pressure_sealevel;temperature;humidity
83242;BME280;73133;47.848;9.000;2023-11-21T04:05:27;95216.69;;;6.05;100.00
83242;BME280;73133;47.848;9.000;2023-11-21T04:08:20;95215.91;;;6.05;100.00
83242;BME280;73133;47.848;9.000;2023-11-21T04:10:51;95220.16;;;6.02;100.00
83242;BME280;73133;47.848;9.000;2023-11-21T04:13:24;95226.00;;;6.01;100.00
83242;BME280;73133;47.848;9.000;2023-11-21T04:15:50;95220.13;;;5.99;100.00
83242;BME280;73133;47.848;9.000;2023-11-21T04:18:16;95229.09;;;6.03;100.00
83242;BME280;73133;47.848;9.000;2023-11-21T04:20:41;95222.50;;;6.00;100.00
83242;BME280;73133;47.848;9.000;2023-11-21T04:23:06;95227.16;;;6.00;100.00
83242;BME280;73133;47.848;9.000;2023-11-21T04:25:34;95230.66;;;6.04;100.00
83242;BME280;73133;47.848;9.000;2023-11-21T04:27:59;95222.09;;;6.02;100.00
83242;BME280;73133;47.848;9.000;2023-11-21T04:30:24;95218.22;;;6.03;100.00
83242;BME280;73133;47.848;9.000;2023-11-21T04:32:50;95224.44;;;6.00;100.00
83242;BME280;73133;47.848;9.000;2023-11-21T04:35:16;95221.78;;;6.07;100.00
83242;BME280;73133;47.848;9.000;2023-11-21T04:37:41;95226.84;;;6.12;100.00
83242;BME280;73133;47.848;9.000;2023-11-21T04:40:07;95226.84;;;6.12;100.00
83242;BME280;73133;47.848;9.000;2023-11-21T04:42:36;95222.22;;;6.16;100.00
83242;BME280;73133;47.848;9.000;2023-11-21T04:45:05;95227.66;;;6.16;100.00
83242;BME280;73133;47.848;9.000;2023-11-21T04:47:37;95222.19;;;6.12;100.00
83242;BME280;73133;47.848;9.000;2023-11-21T04:50:10;95216.72;;;6.09;100.00
83242;BME280;73133;47.848;9.000;2023-11-21T04:52:36;95231.16;;;6.13;100.00
83242;BME280;73133;47.848;9.000;2023-11-21T04:55:01;95234.66;;;6.17;100.00
83242;BME280;73133;47.848;9.000;2023-11-21T04:57:30;95237.78;;;6.15;100.00
83242;BME280;73133;47.848;9.000;2023-11-21T04:59:55;95236.94;;;6.08;100.00
83242;BME280;73133;47.848;9.000;2023-11-21T05:02:21;95237.75;;;6.12;100.00
83242;BME280;73133;47.848;9.000;2023-11-21T05:04:47;95235.75;;;6.09;100.00
83242;BME280;73133;47.848;9.000;2023-11-21T05:07:12;95237.75;;;6.12;100.00
83242;BME280;73133;47.848;9.000;2023-11-21T05:09:42;95234.66;;;6.13;100.00
83242;BME280;73133;47.848;9.000;2023-11-21T05:12:09;95233.88;;;6.13;100.00
83242;BME280;73133;47.848;9.000;2023-11-21T05:14:35;95228.00;;;6.11;100.00
83242;BME280;73133;47.848;9.000;2023-11-21T05:17:00;95230.66;;;6.04;100.00
83242;BME280;73133;47.848;9.000;2023-11-21T05:19:26;95224.81;;;6.02;100.00
83242;BME280;73133;47.848;9.000;2023-11-21T05:21:52;95234.53;;;6.03;100.00
83242;BME280;73133;47.848;9.000;2023-11-21T05:24:17;95228.25;;;5.95;100.00
83242;BME280;73133;47.848;9.000;2023-11-21T05:26:48;95231.75;;;5.96;100.00
83242;BME280;73133;47.848;9.000;2023-11-21T05:29:14;95232.16;;;5.98;100.00
83242;BME280;73133;47.848;9.000;2023-11-21T05:31:39;95222.78;;;5.91;100.00
83242;BME280;73133;47.848;9.000;2023-11-21T05:34:04;95234.41;;;5.88;100.00
83242;BME280;73133;47.848;9.000;2023-11-21T05:36:30;95232.06;;;5.87;100.00
83242;BME280;73133;47.848;9.000;2023-11-21T05:38:58;95230.81;;;5.81;100.00
83242;BME280;73133;47.848;9.000;2023-11-21T05:41:39;95244.41;;;5.81;100.00
83242;BME280;73133;47.848;9.000;2023-11-21T05:44:04;95249.09;;;5.84;100.00
83242;BME280;73133;47.848;9.000;2023-11-21T05:46:35;95246.75;;;5.82;100.00
83242;BME280;73133;47.848;9.000;2023-11-21T05:49:03;95252.63;;;5.84;100.00
83242;BME280;73133;47.848;9.000;2023-11-21T05:51:32;95250.31;;;5.86;100.00
83242;BME280;73133;47.848;9.000;2023-11-21T05:54:05;95252.97;;;5.83;100.00
83242;BME280;73133;47.848;9.000;2023-11-21T05:56:31;95257.28;;;5.84;100.00
83242;BME280;73133;47.848;9.000;2023-11-21T05:59:05;95262.34;;;5.85;100.00
83242;BME280;73133;47.848;9.000;2023-11-21T06:01:32;95257.34;;;5.87;100.00
83242;BME280;73133;47.848;9.000;2023-11-21T06:04:04;95266.25;;;5.88;100.00
83242;BME280;73133;47.848;9.000;2023-11-21T06:06:29;95266.16;;;5.81;100.00
83242;BME280;73133;47.848;9.000;2023-11-21T06:08:56;95274.84;;;5.90;100.00
83242;BME280;73133;47.848;9.000;2023-11-21T06:11:21;95272.91;;;5.90;100.00
83242;BME280;73133;47.848;9.000;2023-11-21T06:14:00;95274.00;;;5.86;100.00
83242;BME280;73133;47.848;9.000;2023-11-21T06:16:25;95287.25;;;5.87;100.00
83242;BME280;73133;47.848;9.000;2023-11-21T06:18:58;95284.22;;;5.96;100.00
83242;BME280;73133;47.848;9.000;2023-11-21T06:21:26;95291.22;;;5.93;100.00
83242;BME280;73133;47.848;9.000;2023-11-21T06:23:59;95293.16;;;5.97;100.00
83242;BME280;73133;47.848;9.000;2023-11-21T06:26:27;95291.28;;;6.01;100.00
83242;BME280;73133;47.848;9.000;2023-11-21T06:28:53;95297.09;;;5.99;100.00
83242;BME280;73133;47.848;9.000;2023-11-21T06:31:30;95297.53;;;6.05;100.00
83242;BME280;73133;47.848;9.000;2023-11-21T06:34:03;95304.53;;;6.06;100.00
83242;BME280;73133;47.848;9.000;2023-11-21T06:36:28;95299.03;;;5.99;100.00
83242;BME280;73133;47.848;9.000;2023-11-21T06:38:54;95322.44;;;6.10;100.00
83242;BME280;73133;47.848;9.000;2023-11-21T06:41:20;95306.81;;;6.00;100.00
83242;BME280;73133;47.848;9.000;2023-11-21T06:43:45;95304.88;;;6.01;100.00
83242;BME280;73133;47.848;9.000;2023-11-21T06:46:23;95302.91;;;5.98;100.00
83242;BME280;73133;47.848;9.000;2023-11-21T06:48:51;95317.66;;;5.97;100.00
83242;BME280;73133;47.848;9.000;2023-11-21T06:51:21;95314.56;;;5.98;100.00
83242;BME280;73133;47.848;9.000;2023-11-21T06:54:07;95323.59;;;6.06;100.00
83242;BME280;73133;47.848;9.000;2023-11-21T06:56:56;95320.88;;;6.06;100.00
83242;BME280;73133;47.848;9.000;2023-11-21T06:59:30;95315.75;;;6.01;100.00
83242;BME280;73133;47.848;9.000;2023-11-21T07:01:58;95319.22;;;5.98;100.00
83242;BME280;73133;47.848;9.000;2023-11-21T07:04:24;95326.66;;;6.01;100.00
83242;BME280;73133;47.848;9.000;2023-11-21T07:06:51;95328.53;;;5.97;100.00
83242;BME280;73133;47.848;9.000;2023-11-21T07:09:16;95330.19;;;6.05;100.00
83242;BME280;73133;47.848;9.000;2023-11-21T07:11:50;95325.53;;;6.05;100.00
83242;BME280;73133;47.848;9.000;2023-11-21T07:14:25;95321.28;;;6.08;100.00
83242;BME280;73133;47.848;9.000;2023-11-21T07:16:50;95317.38;;;6.09;100.00
83242;BME280;73133;47.848;9.000;2023-11-21T07:19:17;95330.31;;;6.15;100.00
83242;BME280;73133;47.848;9.000;2023-11-21T07:21:43;95322.81;;;6.09;100.00
83242;BME280;73133;47.848;9.000;2023-11-21T07:24:08;95320.16;;;6.12;100.00
83242;BME280;73133;47.848;9.000;2023-11-21T07:26:34;95334.63;;;6.20;100.00
83242;BME280;73133;47.848;9.000;2023-11-21T07:29:02;95331.97;;;6.27;100.00
83242;BME280;73133;47.848;9.000;2023-11-21T07:32:16;95341.34;;;6.33;100.00
83242;BME280;73133;47.848;9.000;2023-11-21T07:41:01;95337.66;;;6.55;100.00
83242;BME280;73133;47.848;9.000;2023-11-21T07:43:45;95348.63;;;6.62;100.00
83242;BME280;73133;47.848;9.000;2023-11-21T07:46:19;95344.69;;;6.60;100.00
83242;BME280;73133;47.848;9.000;2023-11-21T07:48:49;95345.84;;;6.55;100.00
83242;BME280;73133;47.848;9.000;2023-11-21T07:51:28;95340.03;;;6.60;100.00
83242;BME280;73133;47.848;9.000;2023-11-21T07:54:06;95343.72;;;6.82;100.00
83242;BME280;73133;47.848;9.000;2023-11-21T07:56:40;95339.91;;;6.90;100.00
83242;BME280;73133;47.848;9.000;2023-11-21T07:59:19;95347.78;;;7.06;99.86
83242;BME280;73133;47.848;9.000;2023-11-21T08:02:21;95358.38;;;7.18;98.42
83242;BME280;73133;47.848;9.000;2023-11-21T08:05:01;95350.16;;;7.11;99.36
83242;BME280;73133;47.848;9.000;2023-11-21T08:07:49;95354.41;;;7.05;99.38
83242;BME280;73133;47.848;9.000;2023-11-21T08:13:28;95350.38;;;6.92;99.75
83242;BME280;73133;47.848;9.000;2023-11-21T08:16:20;95341.00;;;6.86;100.00
83242;BME280;73133;47.848;9.000;2023-11-21T08:19:02;95349.59;;;6.84;100.00
83242;BME280;73133;47.848;9.000;2023-11-21T08:21:31;95348.78;;;6.84;100.00
83242;BME280;73133;47.848;9.000;2023-11-21T08:27:03;95351.84;;;6.79;100.00
83242;BME280;73133;47.848;9.000;2023-11-21T08:29:48;95346.41;;;6.79;99.83
83242;BME280;73133;47.848;9.000;2023-11-21T08:32:21;95354.25;;;6.84;100.00
83242;BME280;73133;47.848;9.000;2023-11-21T08:34:55;95351.91;;;6.86;100.00
83242;BME280;73133;47.848;9.000;2023-11-21T08:37:26;95357.44;;;6.96;99.82
83242;BME280;73133;47.848;9.000;2023-11-21T08:40:02;95350.44;;;6.95;99.42
83242;BME280;73133;47.848;9.000;2023-11-21T08:42:28;95359.81;;;7.01;100.00
83242;BME280;73133;47.848;9.000;2023-11-21T08:44:58;95359.41;;;6.99;99.96
83242;BME280;73133;47.848;9.000;2023-11-21T08:47:24;95353.22;;;7.06;99.44
83242;BME280;73133;47.848;9.000;2023-11-21T08:50:08;95366.97;;;7.24;98.69
83242;BME280;73133;47.848;9.000;2023-11-21T08:52:38;95365.09;;;7.35;97.63
83242;BME280;73133;47.848;9.000;2023-11-21T08:55:15;95361.22;;;7.32;96.98
83242;BME280;73133;47.848;9.000;2023-11-21T08:57:46;95357.34;;;7.40;97.32
83242;BME280;73133;47.848;9.000;2023-11-21T09:00:35;95367.94;;;7.53;96.46
83242;BME280;73133;47.848;9.000;2023-11-21T09:03:01;95368.00;;;7.67;97.31
83242;BME280;73133;47.848;9.000;2023-11-21T09:05:37;95366.44;;;7.66;95.70
83242;BME280;73133;47.848;9.000;2023-11-21T09:08:33;95365.66;;;7.65;96.26
83242;BME280;73133;47.848;9.000;2023-11-21T09:11:18;95372.75;;;7.84;96.07
83242;BME280;73133;47.848;9.000;2023-11-21T09:13:54;95388.44;;;8.05;95.86
83242;BME280;73133;47.848;9.000;2023-11-21T09:16:43;95390.19;;;8.66;92.90
83242;BME280;73133;47.848;9.000;2023-11-21T09:19:09;95390.22;;;8.87;90.62
83242;BME280;73133;47.848;9.000;2023-11-21T09:21:46;95388.28;;;8.91;89.40
83242;BME280;73133;47.848;9.000;2023-11-21T09:24:20;95400.38;;;9.08;89.02
83242;BME280;73133;47.848;9.000;2023-11-21T09:26:55;95393.66;;;9.69;85.24
83242;BME280;73133;47.848;9.000;2023-11-21T09:29:30;95388.47;;;10.80;82.84
83242;BME280;73133;47.848;9.000;2023-11-21T09:32:12;95383.59;;;12.24;72.90
83242;BME280;73133;47.848;9.000;2023-11-21T09:37:49;95395.50;;;11.36;76.63
83242;BME280;73133;47.848;9.000;2023-11-21T09:40:47;95390.19;;;10.59;79.32
83242;BME280;73133;47.848;9.000;2023-11-21T09:47:16;95405.38;;;9.77;82.67
83242;BME280;73133;47.848;9.000;2023-11-21T09:50:34;95401.09;;;9.65;83.59
83242;BME280;73133;47.848;9.000;2023-11-21T09:53:21;95401.13;;;9.51;84.40
83242;BME280;73133;47.848;9.000;2023-11-21T09:59:11;95387.06;;;9.49;84.41
83242;BME280;73133;47.848;9.000;2023-11-21T10:01:49;95394.91;;;9.19;84.76
83242;BME280;73133;47.848;9.000;2023-11-21T10:04:35;95397.22;;;9.27;85.13
83242;BME280;73133;47.848;9.000;2023-11-21T10:07:36;95390.22;;;9.30;85.15
83242;BME280;73133;47.848;9.000;2023-11-21T10:10:32;95395.69;;;9.08;87.49
83242;BME280;73133;47.848;9.000;2023-11-21T10:16:26;95391.78;;;9.09;88.25
83242;BME280;73133;47.848;9.000;2023-11-21T10:18:56;95398.03;;;9.14;86.74
83242;BME280;73133;47.848;9.000;2023-11-21T10:21:59;95390.97;;;9.34;83.91
83242;BME280;73133;47.848;9.000;2023-11-21T10:24:33;95383.81;;;9.89;82.60
83242;BME280;73133;47.848;9.000;2023-11-21T10:27:09;95390.59;;;10.54;79.39
83242;BME280;73133;47.848;9.000;2023-11-21T10:29:47;95392.25;;;11.00;76.67
83242;BME280;73133;47.848;9.000;2023-11-21T10:32:22;95388.44;;;11.38;75.67
83242;BME280;73133;47.848;9.000;2023-11-21T10:35:24;95381.56;;;11.57;74.89
83242;BME280;73133;47.848;9.000;2023-11-21T10:38:11;95379.84;;;11.33;73.06
83242;BME280;73133;47.848;9.000;2023-11-21T10:41:13;95379.59;;;11.61;71.55
83242;BME280;73133;47.848;9.000;2023-11-21T10:44:17;95378.50;;;14.00;63.68
83242;BME280;73133;47.848;9.000;2023-11-21T10:51:00;95398.25;;;17.41;50.02
83242;BME280;73133;47.848;9.000;2023-11-21T10:53:44;95397.22;;;15.85;53.50
83242;BME280;73133;47.848;9.000;2023-11-21T10:56:30;95394.81;;;14.11;57.77
83242;BME280;73133;47.848;9.000;2023-11-21T10:59:00;95386.56;;;13.48;60.11
83242;BME280;73133;47.848;9.000;2023-11-21T11:01:31;95374.50;;;14.44;57.55
83242;BME280;73133;47.848;9.000;2023-11-21T11:04:06;95372.91;;;15.48;54.43
83242;BME280;73133;47.848;9.000;2023-11-21T11:06:43;95375.38;;;18.09;48.11
83242;BME280;73133;47.848;9.000;2023-11-21T11:09:12;95391.16;;;18.78;46.45
83242;BME280;73133;47.848;9.000;2023-11-21T11:11:40;95379.34;;;21.69;40.70
83242;BME280;73133;47.848;9.000;2023-11-21T11:14:09;95373.16;;;25.96;31.87
83242;BME280;73133;47.848;9.000;2023-11-21T11:16:48;95368.41;;;30.30;25.32
83242;BME280;73133;47.848;9.000;2023-11-21T11:19:19;95375.22;;;30.40;25.13
83242;BME280;73133;47.848;9.000;2023-11-21T11:22:00;95372.53;;;30.53;23.79
83242;BME280;73133;47.848;9.000;2023-11-21T11:27:37;95361.00;;;33.37;21.33
83242;BME280;73133;47.848;9.000;2023-11-21T11:38:36;95356.22;;;31.47;22.88
83242;BME280;73133;47.848;9.000;2023-11-21T11:41:09;95353.34;;;25.68;29.13
83242;BME280;73133;47.848;9.000;2023-11-21T11:43:51;95356.59;;;21.85;37.17
83242;BME280;73133;47.848;9.000;2023-11-21T11:46:16;95356.53;;;18.26;44.32
83242;BME280;73133;47.848;9.000;2023-11-21T11:48:48;95354.56;;;15.86;49.34
83242;BME280;73133;47.848;9.000;2023-11-21T11:52:31;95358.91;;;14.34;54.92
83242;BME280;73133;47.848;9.000;2023-11-21T11:54:46;95365.47;;;13.61;58.53
83242;BME280;73133;47.848;9.000;2023-11-21T11:57:19;95366.34;;;12.81;60.03
83242;BME280;73133;47.848;9.000;2023-11-21T12:02:58;95366.47;;;12.13;63.37
83242;BME280;73133;47.848;9.000;2023-11-21T12:05:27;95361.44;;;11.74;64.94
83242;BME280;73133;47.848;9.000;2023-11-21T12:08:03;95364.56;;;11.73;65.48
83242;BME280;73133;47.848;9.000;2023-11-21T12:10:47;95370.03;;;11.76;65.05
83242;BME280;73133;47.848;9.000;2023-11-21T12:13:18;95357.38;;;11.86;64.42
83242;BME280;73133;47.848;9.000;2023-11-21T12:15:56;95365.41;;;12.04;63.51
83242;BME280;73133;47.848;9.000;2023-11-21T12:18:21;95358.97;;;12.48;61.70
83242;BME280;73133;47.848;9.000;2023-11-21T12:20:51;95352.03;;;16.62;52.15
83242;BME280;73133;47.848;9.000;2023-11-21T12:23:17;95354.25;;;16.67;49.23
83242;BME280;73133;47.848;9.000;2023-11-21T12:25:43;95359.63;;;15.26;51.73
83242;BME280;73133;47.848;9.000;2023-11-21T12:28:08;95360.06;;;14.56;53.82
83242;BME280;73133;47.848;9.000;2023-11-21T12:30:35;95364.75;;;13.77;57.10
83242;BME280;73133;47.848;9.000;2023-11-21T12:33:02;95370.44;;;12.43;62.92
83242;BME280;73133;47.848;9.000;2023-11-21T12:35:35;95375.75;;;11.52;67.23
83242;BME280;73133;47.848;9.000;2023-11-21T12:38:06;95375.41;;;11.01;68.83
83242;BME280;73133;47.848;9.000;2023-11-21T12:40:37;95370.25;;;10.55;70.33
83242;BME280;73133;47.848;9.000;2023-11-21T12:43:32;95379.00;;;10.29;72.31
83242;BME280;73133;47.848;9.000;2023-11-21T12:46:14;95381.38;;;10.20;72.89
83242;BME280;73133;47.848;9.000;2023-11-21T12:48:53;95376.69;;;10.10;73.04
83242;BME280;73133;47.848;9.000;2023-11-21T12:51:39;95378.66;;;10.13;73.26
83242;BME280;73133;47.848;9.000;2023-11-21T12:54:08;95377.91;;;10.05;73.29
83242;BME280;73133;47.848;9.000;2023-11-21T12:56:45;95376.69;;;10.10;74.07
83242;BME280;73133;47.848;9.000;2023-11-21T12:59:13;95389.56;;;10.27;73.16
83242;BME280;73133;47.848;9.000;2023-11-21T13:01:45;95381.38;;;10.20;72.34
83242;BME280;73133;47.848;9.000;2023-11-21T13:04:22;95385.31;;;10.15;72.32
83242;BME280;73133;47.848;9.000;2023-11-21T13:07:03;95389.16;;;10.32;73.06
83242;BME280;73133;47.848;9.000;2023-11-21T13:09:40;95384.81;;;10.38;73.46
83242;BME280;73133;47.848;9.000;2023-11-21T13:12:08;95392.63;;;10.43;72.22
83242;BME280;73133;47.848;9.000;2023-11-21T13:15:06;95388.97;;;10.68;71.64
83242;BME280;73133;47.848;9.000;2023-11-21T13:17:38;95384.28;;;11.20;69.43
83242;BME280;73133;47.848;9.000;2023-11-21T13:23:07;95383.31;;;17.86;47.92
83242;BME280;73133;47.848;9.000;2023-11-21T13:25:53;95382.00;;;21.31;39.06
83242;BME280;73133;47.848;9.000;2023-11-21T13:29:00;95386.53;;;21.85;37.80
83242;BME280;73133;47.848;9.000;2023-11-21T13:31:37;95385.69;;;18.96;42.40
83242;BME280;73133;47.848;9.000;2023-11-21T13:34:04;95393.25;;;16.85;47.63
83242;BME280;73133;47.848;9.000;2023-11-21T13:36:30;95397.16;;;14.72;52.41
83242;BME280;73133;47.848;9.000;2023-11-21T13:39:02;95402.28;;;13.48;56.26
83242;BME280;73133;47.848;9.000;2023-11-21T13:41:33;95401.28;;;12.54;59.62
83242;BME280;73133;47.848;9.000;2023-11-21T13:43:59;95402.06;;;13.12;58.54
83242;BME280;73133;47.848;9.000;2023-11-21T13:46:51;95402.22;;;12.44;59.74
83242;BME280;73133;47.848;9.000;2023-11-21T13:49:17;95412.16;;;12.00;62.18
83242;BME280;73133;47.848;9.000;2023-11-21T13:51:43;95402.88;;;11.87;62.75
83242;BME280;73133;47.848;9.000;2023-11-21T13:54:15;95406.13;;;12.12;61.90
83242;BME280;73133;47.848;9.000;2023-11-21T13:56:41;95402.38;;;22.65;37.14
83242;BME280;73133;47.848;9.000;2023-11-21T13:59:06;95401.13;;;26.81;29.35
83242;BME280;73133;47.848;9.000;2023-11-21T14:01:45;95410.09;;;19.81;39.19
83242;BME280;73133;47.848;9.000;2023-11-21T14:04:25;95413.88;;;17.35;46.17
83242;BME280;73133;47.848;9.000;2023-11-21T14:07:10;95411.91;;;17.61;46.61
83242;BME280;73133;47.848;9.000;2023-11-21T14:09:54;95414.00;;;15.78;49.67
83242;BME280;73133;47.848;9.000;2023-11-21T14:12:19;95415.63;;;14.35;53.96
83242;BME280;73133;47.848;9.000;2023-11-21T14:14:45;95422.50;;;13.11;58.33
83242;BME280;73133;47.848;9.000;2023-11-21T14:17:12;95423.88;;;12.04;60.61
83242;BME280;73133;47.848;9.000;2023-11-21T14:19:38;95422.66;;;11.68;62.74
83242;BME280;73133;47.848;9.000;2023-11-21T14:22:11;95425.78;;;11.25;64.90
83242;BME280;73133;47.848;9.000;2023-11-21T14:24:40;95432.56;;;11.10;66.34
83242;BME280;73133;47.848;9.000;2023-11-21T14:27:11;95428.78;;;10.86;65.32
83242;BME280;73133;47.848;9.000;2023-11-21T14:29:37;95435.00;;;10.94;66.67
83242;BME280;73133;47.848;9.000;2023-11-21T14:32:10;95426.34;;;11.02;66.96
83242;BME280;73133;47.848;9.000;2023-11-21T14:34:42;95427.94;;;10.93;67.63
83242;BME280;73133;47.848;9.000;2023-11-21T14:37:10;95429.25;;;10.78;67.80
83242;BME280;73133;47.848;9.000;2023-11-21T14:39:39;95430.13;;;10.60;68.13
83242;BME280;73133;47.848;9.000;2023-11-21T14:42:09;95432.97;;;10.39;69.17
83242;BME280;73133;47.848;9.000;2023-11-21T14:44:35;95441.66;;;10.20;70.67
83242;BME280;73133;47.848;9.000;2023-11-21T14:47:04;95447.19;;;9.95;71.06
83242;BME280;73133;47.848;9.000;2023-11-21T14:49:32;95443.28;;;9.85;72.45
83242;BME280;73133;47.848;9.000;2023-11-21T14:52:12;95440.59;;;9.68;72.77
83242;BME280;73133;47.848;9.000;2023-11-21T14:54:56;95459.75;;;9.64;74.44
83242;BME280;73133;47.848;9.000;2023-11-21T14:57:42;95455.84;;;9.58;75.20
83242;BME280;73133;47.848;9.000;2023-11-21T15:00:14;95457.41;;;9.45;75.20
83242;BME280;73133;47.848;9.000;2023-11-21T15:03:06;95462.88;;;9.41;75.18
83242;BME280;73133;47.848;9.000;2023-11-21T15:05:42;95457.41;;;9.24;76.93
83242;BME280;73133;47.848;9.000;2023-11-21T15:08:14;95474.22;;;9.19;79.22
83242;BME280;73133;47.848;9.000;2023-11-21T15:10:49;95479.25;;;9.02;82.88
83242;BME280;73133;47.848;9.000;2023-11-21T15:13:23;95469.84;;;8.86;86.76
83242;BME280;73133;47.848;9.000;2023-11-21T15:15:51;95476.84;;;8.69;89.43
83242;BME280;73133;47.848;9.000;2023-11-21T15:18:19;95483.03;;;8.52;91.38
83242;BME280;73133;47.848;9.000;2023-11-21T15:20:47;95483.78;;;8.42;91.24
83242;BME280;73133;47.848;9.000;2023-11-21T15:23:12;95489.25;;;8.42;92.31
83242;BME280;73133;47.848;9.000;2023-11-21T15:25:44;95482.19;;;8.34;92.08
83242;BME280;73133;47.848;9.000;2023-11-21T15:28:10;95491.56;;;8.36;93.57
83242;BME280;73133;47.848;9.000;2023-11-21T15:30:36;95487.59;;;8.26;92.68
83242;BME280;73133;47.848;9.000;2023-11-21T15:33:02;95476.25;;;8.24;92.97
83242;BME280;73133;47.848;9.000;2023-11-21T15:35:29;95483.66;;;8.20;92.66
83242;BME280;73133;47.848;9.000;2023-11-21T15:37:57;95489.91;;;8.21;92.98
83242;BME280;73133;47.848;9.000;2023-11-21T15:40:23;95488.72;;;8.18;93.73
83242;BME280;73133;47.848;9.000;2023-11-21T15:42:49;95498.41;;;8.05;93.99
83242;BME280;73133;47.848;9.000;2023-11-21T15:45:15;95494.47;;;7.99;94.83
83242;BME280;73133;47.848;9.000;2023-11-21T15:47:43;95495.25;;;8.03;95.55
83242;BME280;73133;47.848;9.000;2023-11-21T15:50:09;95500.34;;;8.01;94.67
83242;BME280;73133;47.848;9.000;2023-11-21T15:52:36;95501.50;;;8.00;94.94
83242;BME280;73133;47.848;9.000;2023-11-21T15:55:01;95495.22;;;7.96;95.09
83242;BME280;73133;47.848;9.000;2023-11-21T15:57:27;95506.13;;;7.93;94.36
83242;BME280;73133;47.848;9.000;2023-11-21T15:59:57;95502.97;;;7.87;94.73
83242;BME280;73133;47.848;9.000;2023-11-21T16:02:23;95500.22;;;7.80;94.40
83242;BME280;73133;47.848;9.000;2023-11-21T16:04:48;95507.63;;;7.83;94.97
83242;BME280;73133;47.848;9.000;2023-11-21T16:07:14;95507.22;;;7.81;94.50
83242;BME280;73133;47.848;9.000;2023-11-21T16:09:42;95511.13;;;7.80;94.74
83242;BME280;73133;47.848;9.000;2023-11-21T16:12:08;95507.50;;;7.69;95.21
83242;BME280;73133;47.848;9.000;2023-11-21T16:14:37;95515.66;;;7.62;95.51
83242;BME280;73133;47.848;9.000;2023-11-21T16:17:13;95522.25;;;7.61;96.19
83242;BME280;73133;47.848;9.000;2023-11-21T16:19:42;95520.69;;;7.56;96.16
83242;BME280;73133;47.848;9.000;2023-11-21T16:22:08;95526.19;;;7.60;95.41
83242;BME280;73133;47.848;9.000;2023-11-21T16:24:38;95533.56;;;7.59;96.10
83242;BME280;73133;47.848;9.000;2023-11-21T16:27:12;95533.16;;;7.54;96.38
83242;BME280;73133;47.848;9.000;2023-11-21T16:29:38;95537.03;;;7.56;96.52
83242;BME280;73133;47.848;9.000;2023-11-21T16:32:14;95540.56;;;7.57;96.67
83242;BME280;73133;47.848;9.000;2023-11-21T16:34:41;95536.19;;;7.48;96.36
83242;BME280;73133;47.848;9.000;2023-11-21T16:37:06;95532.28;;;7.46;96.96
83242;BME280;73133;47.848;9.000;2023-11-21T16:39:32;95550.66;;;7.53;97.91
83242;BME280;73133;47.848;9.000;2023-11-21T16:41:57;95551.00;;;7.47;97.12
83242;BME280;73133;47.848;9.000;2023-11-21T16:44:23;95554.91;;;7.46;97.07
83242;BME280;73133;47.848;9.000;2023-11-21T16:46:50;95558.78;;;7.45;98.00
83242;BME280;73133;47.848;9.000;2023-11-21T16:49:18;95546.66;;;7.39;97.32
83242;BME280;73133;47.848;9.000;2023-11-21T16:51:44;95561.09;;;7.43;96.98
83242;BME280;73133;47.848;9.000;2023-11-21T16:54:38;95555.56;;;7.36;97.54
83242;BME280;73133;47.848;9.000;2023-11-21T16:57:11;95569.22;;;7.40;97.72
83242;BME280;73133;47.848;9.000;2023-11-21T16:59:37;95563.34;;;7.34;97.30
83242;BME280;73133;47.848;9.000;2023-11-21T17:02:08;95574.28;;;7.38;97.15
83242;BME280;73133;47.848;9.000;2023-11-21T17:05:01;95566.91;;;7.38;97.18
83242;BME280;73133;47.848;9.000;2023-11-21T17:07:26;95580.59;;;7.45;96.93
83242;BME280;73133;47.848;9.000;2023-11-21T17:09:54;95583.66;;;7.40;96.54
83242;BME280;73133;47.848;9.000;2023-11-21T17:12:19;95588.28;;;7.36;96.91
83242;BME280;73133;47.848;9.000;2023-11-21T17:14:45;95588.28;;;7.36;97.06
83242;BME280;73133;47.848;9.000;2023-11-21T17:17:13;95590.66;;;7.38;97.44
83242;BME280;73133;47.848;9.000;2023-11-21T17:19:39;95592.16;;;7.35;97.11
83242;BME280;73133;47.848;9.000;2023-11-21T17:22:04;95600.25;;;7.25;97.49
83242;BME280;73133;47.848;9.000;2023-11-21T17:24:31;95608.38;;;7.21;97.39
83242;BME280;73133;47.848;9.000;2023-11-21T17:26:58;95607.16;;;7.15;97.29
83242;BME280;73133;47.848;9.000;2023-11-21T17:29:24;95610.22;;;7.10;97.33
83242;BME280;73133;47.848;9.000;2023-11-21T17:31:50;95607.44;;;7.06;98.06
83242;BME280;73133;47.848;9.000;2023-11-21T17:34:15;95605.03;;;6.98;98.17
83242;BME280;73133;47.848;9.000;2023-11-21T17:36:44;95607.75;;;6.98;98.03
83242;BME280;73133;47.848;9.000;2023-11-21T17:39:09;95605.25;;;6.86;99.35
83242;BME280;73133;47.848;9.000;2023-11-21T17:41:35;95617.31;;;6.85;99.58
83242;BME280;73133;47.848;9.000;2023-11-21T17:44:02;95613.25;;;6.71;100.00
83242;BME280;73133;47.848;9.000;2023-11-21T17:46:28;95617.06;;;6.63;100.00
83242;BME280;73133;47.848;9.000;2023-11-21T17:48:54;95617.78;;;6.60;100.00
83242;BME280;73133;47.848;9.000;2023-11-21T17:51:20;95622.41;;;6.56;100.00
83242;BME280;73133;47.848;9.000;2023-11-21T17:53:45;95630.88;;;6.51;100.00
83242;BME280;73133;47.848;9.000;2023-11-21T17:56:13;95630.41;;;6.42;100.00
83242;BME280;73133;47.848;9.000;2023-11-21T17:58:38;95637.00;;;6.41;100.00
83242;BME280;73133;47.848;9.000;2023-11-21T18:01:04;95640.84;;;6.40;100.00
83242;BME280;73133;47.848;9.000;2023-11-21T18:03:29;95642.44;;;6.41;100.00
83242;BME280;73133;47.848;9.000;2023-11-21T18:05:55;95651.75;;;6.40;100.00
83242;BME280;73133;47.848;9.000;2023-11-21T18:08:20;95645.16;;;6.41;100.00
83242;BME280;73133;47.848;9.000;2023-11-21T18:10:46;95649.47;;;6.42;100.00
83242;BME280;73133;47.848;9.000;2023-11-21T18:13:12;95654.50;;;6.44;100.00
83242;BME280;73133;47.848;9.000;2023-11-21T18:15:38;95662.84;;;6.54;100.00
83242;BME280;73133;47.848;9.000;2023-11-21T18:18:04;95655.03;;;6.53;100.00
83242;BME280;73133;47.848;9.000;2023-11-21T18:20:30;95654.25;;;6.52;100.00
83242;BME280;73133;47.848;9.000;2023-11-21T18:22:55;95664.00;;;6.53;100.00
83242;BME280;73133;47.848;9.000;2023-11-21T18:25:21;95662.00;;;6.50;100.00